This is the latest recevied weather packets stored in our database for station/object IW0HP-3. If no packets are shown the sender has not sent any weather packets the latest 10 day(s).
| Time | Temp. | Humidity | Pressure | Rain* | Wind** | Luminosity | Snow |
|---|---|---|---|---|---|---|---|
| 1777654003 | 21.11° C | 25% | 1020.9 hPa | - | - | - | - |
| 1777652799 | 21.11° C | 25% | 1020.8 hPa | - | - | - | - |
| 1777651594 | 21.11° C | 24% | 1020.9 hPa | - | - | - | - |
| 1777650390 | 21.67° C | 23% | 1021.2 hPa | - | - | - | - |
| 1777649185 | 22.22° C | 25% | 1020.9 hPa | - | - | - | - |
| 1777647981 | 21.67° C | 22% | 1021.4 hPa | - | - | - | - |
| 1777646777 | 21.11° C | 25% | 1021.1 hPa | - | - | - | - |
| 1777645572 | 20.56° C | 24% | 1021.3 hPa | - | - | - | - |
| 1777644367 | 20.56° C | 24% | 1021.7 hPa | - | - | - | - |
| 1777643163 | 20.56° C | 24% | 1021.7 hPa | - | - | - | - |
| 1777641958 | 20.56° C | 24% | 1021.8 hPa | - | - | - | - |
| 1777640754 | 20° C | 23% | 1022.3 hPa | - | - | - | - |
| 1777639549 | 20° C | 23% | 1022.3 hPa | - | - | - | - |
| 1777638345 | 20° C | 27% | 1021.9 hPa | - | - | - | - |
| 1777637140 | 20° C | 27% | 1022 hPa | - | - | - | - |
| 1777635936 | 19.44° C | 26% | 1022.3 hPa | - | - | - | - |
| 1777634731 | 19.44° C | 27% | 1022.7 hPa | - | - | - | - |
| 1777633527 | 18.89° C | 27% | 1023 hPa | - | - | - | - |
| 1777632322 | 18.89° C | 29% | 1022.8 hPa | - | - | - | - |
| 1777631118 | 18.33° C | 29% | 1022.9 hPa | - | - | - | - |
| 1777629914 | 18.33° C | 30% | 1022.9 hPa | - | - | - | - |
| 1777628709 | 17.78° C | 31% | 1022.9 hPa | - | - | - | - |
| 1777627505 | 17.78° C | 32% | 1022.9 hPa | - | - | - | - |
| 1777626300 | 17.78° C | 30% | 1023.3 hPa | - | - | - | - |
| 1777625096 | 17.22° C | 31% | 1023.2 hPa | - | - | - | - |
* Rain since midnight (hover to see other rain measurements)
** Current wind speed in m/s (hover to see current wind gust speed)